Time;durP1;ratioP1;P1;durP2;ratioP2;P2;SDS_P1;SDS_P2;PMS_P1;PMS_P2;Temp;Humidity;BMP_temperature;BMP_pressure;BME280_temperature;BME280_humidity;BME280_pressure;Samples;Min_cycle;Max_cycle;Signal;HPM_P1;HPM_P2
2023/07/14 00:01:51;;;;;;;20.30;15.10;;;14.10;94.30;;;;;;5016833;28;20213;-92
2023/07/14 00:04:25;;;;;;;20.50;17.07;;;14.20;94.30;;;;;;5016690;28;20669;-93
2023/07/14 00:06:51;;;;;;;19.00;16.97;;;14.20;94.40;;;;;;5018080;28;20227;-93
2023/07/14 00:09:25;;;;;;;25.47;16.93;;;14.20;94.40;;;;;;5016372;28;20181;-93
2023/07/14 00:11:51;;;;;;;24.70;17.65;;;14.20;94.50;;;;;;5017668;28;20205;-93
2023/07/14 00:14:17;;;;;;;23.07;16.63;;;14.20;94.50;;;;;;5016230;28;20193;-92
2023/07/14 00:16:44;;;;;;;32.90;18.23;;;14.20;94.50;;;;;;5016651;28;20177;-92
2023/07/14 00:19:15;;;;;;;23.23;17.87;;;14.20;94.50;;;;;;5019228;28;20181;-93
2023/07/14 00:21:40;;;;;;;21.10;16.80;;;14.20;94.50;;;;;;5020041;28;20177;-92
2023/07/14 00:24:16;;;;;;;28.47;18.07;;;14.10;94.50;;;;;;5016010;28;20190;-93
2023/07/14 00:26:46;;;;;;;24.93;17.83;;;14.20;94.60;;;;;;5016614;28;20667;-93
2023/07/14 00:29:28;;;;;;;19.13;17.23;;;14.20;94.60;;;;;;5022653;28;20180;-93
2023/07/14 00:31:55;;;;;;;26.87;17.70;;;14.20;94.60;;;;;;5026049;28;20263;-93
2023/07/14 00:34:21;;;;;;;21.63;17.63;;;14.20;94.60;;;;;;5034682;28;20201;-93
2023/07/14 00:36:47;;;;;;;23.53;18.00;;;14.20;94.60;;;;;;5031309;28;20173;-93
2023/07/14 00:39:12;;;;;;;25.43;18.10;;;14.20;94.60;;;;;;5028104;28;20184;-93
2023/07/14 00:41:38;;;;;;;19.55;16.25;;;14.20;94.60;;;;;;5030557;28;20181;-93
2023/07/14 00:44:11;;;;;;;22.70;16.83;;;14.20;94.50;;;;;;5024613;28;20197;-93
2023/07/14 00:46:36;;;;;;;21.77;16.37;;;14.10;94.50;;;;;;5036307;28;20200;-93
2023/07/14 00:49:49;;;;;;;26.73;16.73;;;14.10;94.50;;;;;;5032654;28;20185;-93
2023/07/14 00:52:30;;;;;;;20.07;15.60;;;14.10;94.50;;;;;;5080067;22;20262;-93
2023/07/14 00:54:57;;;;;;;21.87;16.77;;;14.20;94.50;;;;;;5030442;28;20248;-91
2023/07/14 00:57:25;;;;;;;17.60;15.63;;;14.10;94.50;;;;;;5013043;28;20177;-91
2023/07/14 00:59:54;;;;;;;22.00;15.67;;;14.10;94.40;;;;;;5014374;28;20182;-92
2023/07/14 01:02:24;;;;;;;18.55;14.10;;;14.10;94.40;;;;;;5014773;28;20180;-92
2023/07/14 01:05:01;;;;;;;18.40;15.07;;;14.10;94.40;;;;;;5013510;28;20259;-91
2023/07/14 01:07:35;;;;;;;19.02;14.32;;;14.20;94.30;;;;;;5013341;28;20169;-91
2023/07/14 01:10:01;;;;;;;18.73;12.60;;;14.20;94.30;;;;;;5013659;28;20240;-91
2023/07/14 01:12:30;;;;;;;15.98;12.57;;;14.20;94.30;;;;;;5013047;28;20213;-92
2023/07/14 01:14:57;;;;;;;17.27;13.27;;;14.20;94.20;;;;;;5013299;28;20200;-91
2023/07/14 01:17:23;;;;;;;17.65;13.13;;;14.10;94.10;;;;;;5013881;28;20177;-91
2023/07/14 01:19:59;;;;;;;15.27;13.70;;;14.10;94.00;;;;;;5013151;28;20227;-91
2023/07/14 01:22:50;;;;;;;18.35;13.18;;;14.00;94.00;;;;;;5013313;28;20192;-91
2023/07/14 01:25:36;;;;;;;24.65;13.27;;;14.00;94.00;;;;;;5013240;28;20170;-92
2023/07/14 01:28:14;;;;;;;20.52;13.75;;;14.00;94.00;;;;;;5012707;28;20253;-92
2023/07/14 01:30:40;;;;;;;16.13;13.30;;;14.00;94.00;;;;;;5013117;28;20168;-91
2023/07/14 01:33:12;;;;;;;16.93;14.13;;;14.00;94.00;;;;;;5012850;28;20654;-91
2023/07/14 01:35:42;;;;;;;18.92;14.57;;;14.00;94.00;;;;;;5014711;28;20244;-91
2023/07/14 01:38:09;;;;;;;18.63;12.82;;;13.90;94.00;;;;;;5012992;28;20564;-91
2023/07/14 01:40:36;;;;;;;13.18;11.52;;;14.00;94.10;;;;;;5012822;28;20174;-91
2023/07/14 01:43:04;;;;;;;15.63;13.93;;;14.00;94.00;;;;;;5012908;28;20180;-91
2023/07/14 01:45:37;;;;;;;15.10;13.00;;;13.90;94.00;;;;;;5012962;28;20177;-91
2023/07/14 01:48:07;;;;;;;15.95;12.50;;;13.90;94.00;;;;;;5012905;28;20162;-91
2023/07/14 01:50:37;;;;;;;21.63;11.65;;;14.00;94.00;;;;;;5012912;28;20213;-91
2023/07/14 01:53:12;;;;;;;17.30;11.77;;;14.00;93.90;;;;;;5013446;28;20205;-91
2023/07/14 01:55:41;;;;;;;20.23;11.77;;;14.00;93.90;;;;;;5014301;28;20183;-92
2023/07/14 01:58:16;;;;;;;13.70;10.75;;;14.00;93.90;;;;;;5012864;28;20435;-91
2023/07/14 02:00:45;;;;;;;15.20;10.65;;;14.00;93.80;;;;;;5012809;28;20165;-92
2023/07/14 02:03:13;;;;;;;21.23;8.90;;;14.00;93.70;;;;;;5013414;28;20200;-91
2023/07/14 02:05:39;;;;;;;15.88;9.73;;;13.90;93.50;;;;;;5012530;28;20178;-92
2023/07/14 02:08:10;;;;;;;15.43;9.77;;;13.90;93.40;;;;;;5012973;28;20675;-91
2023/07/14 02:10:35;;;;;;;20.73;9.68;;;13.70;93.20;;;;;;5012497;28;20603;-91
2023/07/14 02:13:05;;;;;;;16.65;9.82;;;13.70;93.10;;;;;;5013601;28;20239;-92
2023/07/14 02:15:33;;;;;;;14.77;9.75;;;13.70;93.10;;;;;;5012509;28;20588;-91
2023/07/14 02:18:00;;;;;;;10.67;9.47;;;13.70;92.80;;;;;;5013879;28;20233;-91
2023/07/14 02:20:28;;;;;;;15.27;10.13;;;13.60;92.60;;;;;;5012653;28;20195;-92
2023/07/14 02:22:55;;;;;;;15.33;10.77;;;13.50;92.60;;;;;;5012557;28;20178;-91
2023/07/14 02:25:23;;;;;;;13.37;10.17;;;13.60;92.50;;;;;;5012491;28;20334;-91
2023/07/14 02:27:49;;;;;;;20.52;11.10;;;13.50;92.30;;;;;;5012367;28;20174;-91
2023/07/14 02:30:22;;;;;;;17.52;10.55;;;13.40;92.10;;;;;;5012387;28;20185;-91
2023/07/14 02:33:04;;;;;;;14.43;11.30;;;13.50;92.10;;;;;;5012439;28;20202;-91
2023/07/14 02:35:36;;;;;;;14.37;10.73;;;13.50;92.10;;;;;;5012506;28;20173;-91
2023/07/14 02:38:10;;;;;;;12.82;11.73;;;13.50;92.00;;;;;;5012369;28;20172;-91
2023/07/14 02:40:46;;;;;;;16.17;11.73;;;13.50;92.00;;;;;;5015832;28;20170;-91
2023/07/14 02:43:15;;;;;;;23.13;11.73;;;13.60;92.20;;;;;;5015799;28;20208;-91
2023/07/14 02:45:57;;;;;;;13.57;11.10;;;13.50;92.40;;;;;;5016027;28;20209;-91
2023/07/14 02:48:44;;;;;;;14.32;10.57;;;13.50;92.60;;;;;;5016161;28;20166;-92
2023/07/14 02:51:10;;;;;;;12.47;10.87;;;13.50;92.60;;;;;;5015437;28;20193;-91
2023/07/14 02:53:35;;;;;;;16.48;11.40;;;13.50;92.70;;;;;;5015630;28;20307;-91
2023/07/14 02:56:02;;;;;;;12.23;10.95;;;13.50;92.80;;;;;;5015292;28;20219;-91
2023/07/14 02:58:27;;;;;;;17.83;11.10;;;13.40;92.80;;;;;;5015396;28;20185;-91
2023/07/14 03:00:53;;;;;;;14.93;10.80;;;13.40;92.80;;;;;;5015321;28;20180;-92
2023/07/14 03:03:19;;;;;;;14.73;11.37;;;13.30;92.80;;;;;;5015456;28;20205;-91
2023/07/14 03:05:45;;;;;;;20.45;11.70;;;13.30;92.90;;;;;;5015596;28;20584;-91
2023/07/14 03:08:16;;;;;;;12.83;11.60;;;13.30;93.00;;;;;;5015413;28;20649;-91
2023/07/14 03:10:43;;;;;;;16.43;10.67;;;13.30;93.20;;;;;;5015264;28;20224;-91
2023/07/14 03:13:09;;;;;;;12.70;10.20;;;13.30;93.30;;;;;;5015353;28;20738;-92
2023/07/14 03:15:34;;;;;;;13.57;10.50;;;13.40;93.30;;;;;;5015913;28;20186;-91
2023/07/14 03:18:00;;;;;;;13.77;10.13;;;13.50;93.40;;;;;;5014957;28;20280;-92
2023/07/14 03:20:26;;;;;;;11.77;10.63;;;13.30;93.20;;;;;;5015254;28;20173;-91
2023/07/14 03:22:51;;;;;;;18.55;10.60;;;13.40;93.30;;;;;;5014956;28;20192;-91
2023/07/14 03:25:17;;;;;;;11.53;10.33;;;13.40;93.30;;;;;;5014953;28;20189;-92
2023/07/14 03:27:44;;;;;;;16.97;10.90;;;13.50;93.40;;;;;;5014716;28;20255;-91
2023/07/14 03:30:10;;;;;;;10.93;9.50;;;13.70;93.40;;;;;;5014643;28;20178;-91
2023/07/14 03:32:35;;;;;;;17.45;9.55;;;13.70;93.30;;;;;;5014703;28;20197;-91
2023/07/14 03:35:01;;;;;;;17.57;10.37;;;13.70;93.20;;;;;;5014999;28;20192;-91
2023/07/14 03:37:26;;;;;;;15.48;10.52;;;13.60;92.90;;;;;;5014480;28;20170;-91
2023/07/14 03:39:52;;;;;;;16.98;10.48;;;13.70;92.90;;;;;;5014778;28;20646;-91
2023/07/14 03:42:17;;;;;;;24.52;10.00;;;13.80;92.80;;;;;;5014258;28;20199;-91
2023/07/14 03:44:43;;;;;;;23.20;10.43;;;13.70;92.40;;;;;;5014568;28;20640;-91
2023/07/14 03:47:08;;;;;;;22.25;11.27;;;13.50;92.30;;;;;;5014479;28;20177;-91
2023/07/14 03:49:34;;;;;;;20.23;11.23;;;13.50;92.50;;;;;;5014295;28;20173;-91
2023/07/14 03:52:00;;;;;;;14.00;11.13;;;13.70;92.60;;;;;;5013678;28;20557;-91
2023/07/14 03:54:25;;;;;;;16.23;10.77;;;13.70;92.50;;;;;;5014196;28;20201;-92
2023/07/14 03:56:54;;;;;;;16.23;10.73;;;13.70;92.60;;;;;;5014113;28;20174;-91
2023/07/14 03:59:20;;;;;;;13.93;12.07;;;13.70;92.50;;;;;;5014221;28;20184;-91
2023/07/14 04:01:46;;;;;;;13.45;11.25;;;13.80;92.60;;;;;;5014296;28;20640;-92
2023/07/14 04:04:14;;;;;;;19.15;11.90;;;13.90;92.50;;;;;;4997747;28;20316;-91
2023/07/14 04:06:39;;;;;;;21.43;12.00;;;13.80;92.50;;;;;;5013970;28;20177;-91
2023/07/14 04:09:06;;;;;;;13.15;10.88;;;13.90;92.50;;;;;;5013813;28;20245;-91
2023/07/14 04:11:34;;;;;;;15.20;12.98;;;13.80;92.60;;;;;;5014034;28;20178;-91
2023/07/14 04:14:01;;;;;;;18.10;13.48;;;13.90;92.70;;;;;;5013656;28;20201;-91
2023/07/14 04:16:27;;;;;;;16.73;13.82;;;14.10;92.90;;;;;;5013981;28;20219;-91
2023/07/14 04:18:53;;;;;;;17.50;14.02;;;14.10;92.80;;;;;;5013667;28;20185;-91
2023/07/14 04:21:24;;;;;;;18.70;14.18;;;14.30;93.00;;;;;;5013958;28;20273;-91
2023/07/14 04:23:50;;;;;;;24.10;14.45;;;14.30;92.70;;;;;;5013674;28;20201;-92
2023/07/14 04:26:15;;;;;;;21.25;15.63;;;14.40;92.70;;;;;;5013828;28;20178;-91
2023/07/14 04:28:41;;;;;;;24.30;16.00;;;14.30;92.70;;;;;;5013886;28;20208;-92
2023/07/14 04:31:07;;;;;;;19.10;16.20;;;14.30;92.90;;;;;;5013836;28;20181;-91
2023/07/14 04:33:32;;;;;;;26.17;17.00;;;14.40;93.00;;;;;;5013504;28;20331;-91
2023/07/14 04:35:58;;;;;;;22.33;16.25;;;14.50;93.10;;;;;;5013617;28;20177;-92
2023/07/14 04:38:24;;;;;;;21.30;16.35;;;14.60;93.20;;;;;;5013466;28;20180;-91
2023/07/14 04:40:50;;;;;;;17.95;16.08;;;14.80;93.20;;;;;;5013404;28;20189;-91
2023/07/14 04:43:17;;;;;;;18.20;15.70;;;14.80;93.10;;;;;;5013214;28;20279;-91
2023/07/14 04:45:45;;;;;;;17.85;15.60;;;14.90;93.10;;;;;;5013223;28;20181;-91
2023/07/14 04:48:16;;;;;;;21.38;15.98;;;14.80;93.00;;;;;;5013795;28;20641;-91
2023/07/14 04:50:44;;;;;;;31.85;15.32;;;14.90;92.90;;;;;;5013271;28;20599;-91
2023/07/14 04:53:10;;;;;;;21.73;16.10;;;14.90;92.90;;;;;;5013670;28;20217;-91
2023/07/14 04:55:37;;;;;;;21.08;16.45;;;14.80;92.90;;;;;;5013269;28;20178;-91
2023/07/14 04:58:04;;;;;;;22.13;16.35;;;14.90;93.00;;;;;;5013181;28;20224;-92
2023/07/14 05:00:30;;;;;;;23.45;17.48;;;14.90;93.10;;;;;;5013208;28;20204;-92
2023/07/14 05:02:56;;;;;;;26.60;18.92;;;14.90;93.20;;;;;;5012146;28;20661;-91
2023/07/14 05:05:24;;;;;;;23.90;19.15;;;14.90;93.20;;;;;;5013084;28;20207;-91
2023/07/14 05:07:52;;;;;;;26.05;18.50;;;14.90;93.30;;;;;;5012940;28;20607;-91
2023/07/14 05:10:19;;;;;;;30.08;20.05;;;15.00;93.40;;;;;;5013163;28;20181;-91
2023/07/14 05:12:45;;;;;;;22.73;19.88;;;14.90;93.50;;;;;;5013206;28;20201;-91
2023/07/14 05:15:11;;;;;;;29.58;20.25;;;14.90;93.70;;;;;;5013256;28;20542;-91
2023/07/14 05:17:43;;;;;;;33.42;20.02;;;14.90;93.90;;;;;;5013881;28;20169;-91
2023/07/14 05:20:14;;;;;;;27.52;20.85;;;15.00;94.00;;;;;;5012924;28;20166;-91
2023/07/14 05:22:43;;;;;;;26.63;21.58;;;15.00;94.10;;;;;;5012500;28;20165;-90
2023/07/14 05:25:09;;;;;;;24.95;21.25;;;15.10;94.20;;;;;;5013593;28;20235;-89
2023/07/14 05:27:35;;;;;;;26.88;21.13;;;15.10;94.20;;;;;;5012477;28;20177;-89
2023/07/14 05:30:02;;;;;;;31.20;22.50;;;15.20;94.30;;;;;;5012699;28;20177;-90
2023/07/14 05:32:28;;;;;;;25.73;23.00;;;15.30;94.30;;;;;;5012399;28;20213;-90
2023/07/14 05:34:54;;;;;;;29.63;22.00;;;15.40;94.40;;;;;;5012296;28;20200;-90
2023/07/14 05:37:20;;;;;;;29.25;22.20;;;15.40;94.30;;;;;;5013463;28;20176;-89
2023/07/14 05:39:46;;;;;;;31.52;23.15;;;15.40;94.40;;;;;;5012331;28;20173;-90
2023/07/14 05:42:11;;;;;;;27.17;21.45;;;15.40;94.30;;;;;;5012364;28;20177;-90
2023/07/14 05:44:37;;;;;;;26.25;23.35;;;15.40;94.10;;;;;;5013403;28;20197;-90
2023/07/14 05:47:04;;;;;;;25.20;22.40;;;15.40;94.10;;;;;;5012567;28;20178;-88
2023/07/14 05:49:29;;;;;;;31.15;24.25;;;15.50;94.10;;;;;;5012172;28;20528;-89
2023/07/14 05:51:55;;;;;;;27.40;23.83;;;15.50;94.00;;;;;;5012032;28;20239;-90
2023/07/14 05:54:21;;;;;;;29.90;23.02;;;15.60;94.00;;;;;;5012185;28;20193;-91
2023/07/14 05:56:47;;;;;;;28.42;23.40;;;15.80;94.10;;;;;;5012272;28;20262;-90
2023/07/14 05:59:13;;;;;;;26.67;23.08;;;15.70;93.90;;;;;;5012358;28;20201;-90
2023/07/14 06:01:39;;;;;;;24.33;22.05;;;15.80;94.00;;;;;;5012129;28;20184;-88
2023/07/14 06:04:07;;;;;;;27.77;22.80;;;15.90;93.80;;;;;;5012516;28;20280;-90
2023/07/14 06:06:33;;;;;;;25.15;21.85;;;15.90;93.80;;;;;;5012321;28;20232;-90
2023/07/14 06:09:00;;;;;;;23.90;21.40;;;15.90;93.70;;;;;;5013300;28;20177;-91
2023/07/14 06:11:26;;;;;;;29.83;23.60;;;15.90;93.70;;;;;;5013554;28;20170;-91
2023/07/14 06:13:51;;;;;;;27.80;22.67;;;16.00;93.60;;;;;;5013532;28;20248;-87
2023/07/14 06:16:20;;;;;;;26.65;22.95;;;16.00;93.60;;;;;;5015958;28;20201;-90
2023/07/14 06:18:45;;;;;;;24.38;21.83;;;16.10;93.50;;;;;;5016836;28;20165;-88
2023/07/14 06:21:12;;;;;;;25.98;23.20;;;16.20;93.50;;;;;;5016199;28;20185;-90
2023/07/14 06:23:37;;;;;;;26.02;22.95;;;16.30;93.40;;;;;;5015845;28;20298;-91
2023/07/14 06:26:03;;;;;;;31.85;23.52;;;16.20;93.10;;;;;;5015751;28;20231;-90
2023/07/14 06:28:28;;;;;;;30.10;21.80;;;16.30;93.00;;;;;;5017311;28;20255;-91
2023/07/14 06:31:01;;;;;;;31.77;24.38;;;16.20;92.50;;;;;;5017129;28;20550;-90
2023/07/14 06:33:27;;;;;;;28.10;23.20;;;16.40;92.80;;;;;;5015840;28;20213;-90
2023/07/14 06:35:55;;;;;;;26.13;22.35;;;16.50;92.70;;;;;;5017019;28;20172;-90
2023/07/14 06:38:22;;;;;;;28.55;22.52;;;16.40;92.20;;;;;;5015673;28;20268;-91
2023/07/14 06:40:54;;;;;;;26.30;21.52;;;16.40;92.20;;;;;;5017081;28;20200;-92
2023/07/14 06:43:19;;;;;;;31.38;21.70;;;16.50;92.10;;;;;;5016929;28;20193;-91
2023/07/14 06:45:48;;;;;;;26.60;20.88;;;16.60;92.10;;;;;;5017328;28;20199;-91
2023/07/14 06:48:13;;;;;;;28.92;21.85;;;16.60;91.70;;;;;;5017936;28;20173;-92
2023/07/14 06:50:39;;;;;;;28.98;20.63;;;16.70;91.30;;;;;;5017211;28;20182;-92
2023/07/14 06:53:05;;;;;;;28.45;21.92;;;16.70;91.30;;;;;;5016874;28;20285;-92
2023/07/14 06:55:31;;;;;;;29.90;19.88;;;16.80;91.10;;;;;;5017398;28;20276;-91
2023/07/14 06:57:56;;;;;;;26.05;21.60;;;16.80;91.00;;;;;;5017751;28;20189;-92
2023/07/14 07:00:22;;;;;;;22.70;20.35;;;16.90;90.80;;;;;;5017065;28;20181;-92
2023/07/14 07:02:48;;;;;;;21.35;19.13;;;17.10;90.90;;;;;;5015716;28;20185;-91
2023/07/14 07:05:13;;;;;;;21.23;18.55;;;17.10;90.40;;;;;;5016395;28;20204;-92
2023/07/14 07:07:39;;;;;;;21.27;19.08;;;17.20;90.00;;;;;;5017009;28;20184;-92
2023/07/14 07:10:06;;;;;;;26.23;19.20;;;17.30;90.30;;;;;;5015526;28;20578;-91
2023/07/14 07:12:32;;;;;;;20.08;18.02;;;17.30;89.90;;;;;;5015413;28;20629;-91
2023/07/14 07:14:57;;;;;;;19.75;17.48;;;17.30;89.20;;;;;;5016530;28;20205;-92
2023/07/14 07:17:22;;;;;;;19.67;17.65;;;17.30;88.60;;;;;;5015050;28;20174;-92
2023/07/14 07:19:48;;;;;;;19.52;16.85;;;17.40;88.80;;;;;;5015037;28;20182;-92
2023/07/14 07:22:14;;;;;;;19.35;17.25;;;17.50;88.30;;;;;;5016501;28;20173;-91
2023/07/14 07:24:40;;;;;;;20.75;17.77;;;17.50;87.80;;;;;;5014597;28;20201;-91
2023/07/14 07:27:06;;;;;;;25.27;16.48;;;17.70;88.10;;;;;;5015786;28;20227;-91
2023/07/14 07:29:32;;;;;;;20.27;16.75;;;17.70;87.60;;;;;;5014933;28;20188;-91
2023/07/14 07:31:57;;;;;;;24.08;15.75;;;17.70;87.60;;;;;;5014716;28;20177;-92
2023/07/14 07:34:23;;;;;;;16.77;15.07;;;17.90;87.70;;;;;;5014854;28;20668;-92
2023/07/14 07:36:49;;;;;;;17.73;15.93;;;17.90;86.80;;;;;;5014881;28;20178;-91
2023/07/14 07:39:15;;;;;;;16.85;14.68;;;17.90;86.70;;;;;;5014713;28;20192;-91
2023/07/14 07:41:41;;;;;;;17.15;14.75;;;18.00;86.50;;;;;;5015832;28;20165;-92
2023/07/14 07:44:08;;;;;;;20.60;14.60;;;18.10;85.80;;;;;;5016084;28;20280;-91
2023/07/14 07:46:35;;;;;;;16.55;13.70;;;18.20;85.80;;;;;;5014477;28;20575;-91
2023/07/14 07:49:01;;;;;;;17.08;15.23;;;18.30;86.10;;;;;;5015735;28;20193;-91
2023/07/14 07:51:27;;;;;;;18.27;15.13;;;18.20;83.80;;;;;;5015341;28;20170;-91
2023/07/14 07:53:53;;;;;;;15.30;13.73;;;18.20;83.80;;;;;;5014126;28;20263;-91
2023/07/14 07:56:18;;;;;;;15.85;13.90;;;18.20;82.90;;;;;;5014498;28;20667;-92
2023/07/14 07:58:44;;;;;;;16.50;14.02;;;18.40;83.70;;;;;;5014545;28;20177;-91
2023/07/14 08:01:21;;;;;;;16.95;13.25;;;18.50;82.70;;;;;;5015297;28;20177;-92
2023/07/14 08:03:47;;;;;;;21.92;13.52;;;18.60;83.20;;;;;;5015564;28;20205;-91
2023/07/14 08:06:13;;;;;;;15.70;14.13;;;18.70;82.80;;;;;;5013947;28;20227;-91
2023/07/14 08:08:39;;;;;;;14.90;13.40;;;18.70;82.30;;;;;;5013960;28;20182;-91
2023/07/14 08:11:08;;;;;;;15.60;13.35;;;18.80;82.00;;;;;;5013900;28;20204;-92
2023/07/14 08:13:34;;;;;;;14.35;12.95;;;18.80;82.30;;;;;;5015016;28;20212;-92
2023/07/14 08:15:59;;;;;;;15.75;14.35;;;19.00;82.60;;;;;;5015168;28;20169;-92
2023/07/14 08:18:25;;;;;;;14.15;12.77;;;18.80;81.40;;;;;;5014104;28;20177;-92
2023/07/14 08:20:51;;;;;;;17.33;15.05;;;19.20;82.40;;;;;;5014965;28;20641;-90
2023/07/14 08:23:20;;;;;;;20.08;14.77;;;19.20;80.10;;;;;;5014392;28;20247;-91
2023/07/14 08:25:59;;;;;;;17.70;15.07;;;19.30;80.20;;;;;;5014308;28;20181;-91
2023/07/14 08:28:26;;;;;;;15.82;14.25;;;19.40;79.40;;;;;;5014295;28;20212;-92
2023/07/14 08:30:55;;;;;;;14.20;12.75;;;19.50;78.90;;;;;;5013957;28;20177;-91
2023/07/14 08:33:21;;;;;;;16.55;15.00;;;19.70;79.20;;;;;;5013743;28;20228;-91
2023/07/14 08:35:51;;;;;;;15.35;13.95;;;19.60;79.00;;;;;;5014469;28;20173;-91
2023/07/14 08:38:19;;;;;;;15.13;13.82;;;19.60;78.40;;;;;;5015279;28;20169;-91
2023/07/14 08:41:06;;;;;;;24.48;14.40;;;19.70;76.60;;;;;;5015327;28;20169;-91
2023/07/14 08:43:52;;;;;;;18.92;13.75;;;19.70;76.30;;;;;;5015219;28;20236;-91
2023/07/14 08:46:27;;;;;;;15.27;14.18;;;19.70;76.50;;;;;;5014615;28;20162;-91
2023/07/14 08:49:00;;;;;;;15.02;13.57;;;19.60;75.40;;;;;;5015025;28;20519;-91
2023/07/14 08:51:35;;;;;;;15.15;13.75;;;19.90;77.60;;;;;;5013641;28;20531;-91
2023/07/14 08:54:08;;;;;;;18.55;14.30;;;20.20;76.60;;;;;;5013822;28;20310;-91
2023/07/14 08:56:35;;;;;;;15.40;14.23;;;20.40;75.10;;;;;;5014893;28;20158;-91
2023/07/14 08:59:02;;;;;;;15.00;13.80;;;20.50;74.30;;;;;;5014362;28;20173;-91
2023/07/14 09:01:45;;;;;;;13.70;12.40;;;20.50;74.40;;;;;;5013510;28;20181;-91
2023/07/14 09:04:18;;;;;;;16.77;15.15;;;20.90;75.90;;;;;;5013028;28;20197;-91
2023/07/14 09:06:44;;;;;;;18.25;15.00;;;20.90;72.10;;;;;;5013997;28;20169;-92
2023/07/14 09:09:34;;;;;;;16.52;14.98;;;20.70;70.50;;;;;;5014505;28;20173;-89
2023/07/14 09:12:46;;;;;;;18.23;14.95;;;20.60;73.10;;;;;;5013310;28;20224;-90
2023/07/14 09:15:23;;;;;;;15.95;14.75;;;21.10;73.30;;;;;;5012473;28;20736;-90
2023/07/14 09:17:55;;;;;;;16.77;15.05;;;20.90;70.80;;;;;;5015275;28;20161;-91
2023/07/14 09:20:27;;;;;;;17.42;15.75;;;21.00;70.00;;;;;;5012992;28;20638;-91
2023/07/14 09:23:23;;;;;;;16.70;15.05;;;20.70;69.30;;;;;;5014771;28;20158;-91
2023/07/14 09:26:04;;;;;;;18.08;16.23;;;20.90;70.30;;;;;;5014346;28;20162;-91
2023/07/14 09:28:39;;;;;;;17.55;16.17;;;21.10;68.80;;;;;;5014509;28;20655;-91
2023/07/14 09:31:19;;;;;;;16.67;15.07;;;20.90;68.60;;;;;;5015413;28;20168;-91
2023/07/14 09:33:53;;;;;;;25.20;23.30;;;21.00;69.20;;;;;;5015459;28;20208;-93
2023/07/14 09:36:20;;;;;;;26.02;24.15;;;20.90;70.00;;;;;;5013850;28;20172;-90
2023/07/14 09:38:59;;;;;;;28.17;25.95;;;21.20;69.90;;;;;;5015666;28;20200;-91
2023/07/14 09:41:28;;;;;;;27.70;25.55;;;21.70;68.50;;;;;;5012899;28;20622;-92
2023/07/14 09:43:58;;;;;;;28.95;26.55;;;21.80;67.20;;;;;;5014023;28;20185;-92
2023/07/14 09:46:25;;;;;;;26.95;24.77;;;21.20;68.60;;;;;;5014518;28;20208;-92
2023/07/14 09:49:10;;;;;;;28.27;25.85;;;21.30;68.60;;;;;;5015035;28;20637;-92
2023/07/14 09:51:36;;;;;;;29.23;26.85;;;21.70;67.30;;;;;;5016921;28;20628;-91
2023/07/14 09:54:10;;;;;;;29.30;26.98;;;21.90;67.10;;;;;;5016089;28;20223;-91
2023/07/14 09:56:42;;;;;;;28.48;26.15;;;22.00;67.20;;;;;;5017058;28;20184;-91
2023/07/14 09:59:18;;;;;;;30.48;28.27;;;21.80;65.70;;;;;;5017584;28;20256;-91
2023/07/14 10:01:58;;;;;;;19.17;17.67;;;22.10;65.20;;;;;;5016016;28;20180;-88
2023/07/14 10:04:32;;;;;;;18.17;16.90;;;22.20;65.90;;;;;;5015756;28;20196;-88
2023/07/14 10:07:26;;;;;;;20.80;19.10;;;22.20;68.20;;;;;;5016301;28;20625;-87
2023/07/14 10:09:57;;;;;;;18.95;17.55;;;22.20;62.60;;;;;;5015766;28;20174;-88
2023/07/14 10:12:22;;;;;;;18.02;16.67;;;22.00;66.20;;;;;;5018884;28;20204;-91
2023/07/14 10:14:49;;;;;;;20.20;18.60;;;21.90;67.00;;;;;;5019764;28;20284;-91
2023/07/14 10:17:26;;;;;;;19.60;18.00;;;21.80;62.90;;;;;;5019056;28;20165;-91
2023/07/14 10:19:56;;;;;;;19.25;17.85;;;22.00;64.80;;;;;;5017689;28;20178;-88
2023/07/14 10:22:31;;;;;;;20.17;18.42;;;22.30;66.00;;;;;;5019115;28;20186;-90
2023/07/14 10:24:59;;;;;;;20.58;18.65;;;22.20;64.50;;;;;;5016473;28;20272;-90
2023/07/14 10:27:28;;;;;;;20.77;19.08;;;22.20;64.60;;;;;;5016849;28;20204;-90
2023/07/14 10:30:09;;;;;;;21.10;19.30;;;22.70;64.90;;;;;;5015496;28;20283;-90
2023/07/14 10:32:38;;;;;;;20.77;19.05;;;22.80;61.40;;;;;;5015241;28;20231;-90
2023/07/14 10:35:08;;;;;;;20.90;19.10;;;22.80;62.80;;;;;;5016936;28;20186;-91
2023/07/14 10:37:48;;;;;;;20.88;19.45;;;23.00;61.00;;;;;;5016726;28;20621;-90
2023/07/14 10:40:18;;;;;;;19.73;18.25;;;22.60;61.40;;;;;;5015780;28;20193;-91
2023/07/14 10:43:03;;;;;;;20.60;19.05;;;22.50;61.10;;;;;;5015611;28;20583;-91
2023/07/14 10:45:32;;;;;;;19.88;18.13;;;22.40;63.60;;;;;;5016903;28;20224;-90
2023/07/14 10:48:11;;;;;;;18.90;17.58;;;22.10;63.30;;;;;;5015294;28;20186;-90
2023/07/14 10:50:49;;;;;;;19.52;17.88;;;22.00;64.30;;;;;;5015102;28;20558;-89
2023/07/14 10:53:23;;;;;;;20.13;18.70;;;22.30;64.40;;;;;;5015041;28;20568;-91
2023/07/14 10:55:52;;;;;;;19.50;18.20;;;22.20;65.00;;;;;;5015024;28;20574;-91
2023/07/14 10:58:41;;;;;;;20.70;18.67;;;22.20;63.60;;;;;;5015215;28;20271;-90
2023/07/14 11:01:15;;;;;;;20.15;18.38;;;22.00;64.60;;;;;;5016042;28;20177;-91
2023/07/14 11:03:48;;;;;;;19.58;18.00;;;22.00;65.30;;;;;;5015640;28;20196;-90
2023/07/14 11:06:20;;;;;;;18.77;17.38;;;21.80;65.40;;;;;;5014856;28;20180;-90
2023/07/14 11:08:51;;;;;;;18.40;16.80;;;22.20;64.90;;;;;;5016370;28;20169;-90
2023/07/14 11:11:37;;;;;;;19.15;17.55;;;22.50;64.70;;;;;;5015177;28;20173;-89
2023/07/14 11:14:15;;;;;;;19.67;18.27;;;22.80;64.80;;;;;;5015971;28;20557;-90
2023/07/14 11:16:55;;;;;;;19.13;17.73;;;23.10;63.10;;;;;;5015080;28;20176;-89
2023/07/14 11:19:29;;;;;;;19.38;17.98;;;22.90;61.00;;;;;;5016282;28;20158;-89
2023/07/14 11:22:07;;;;;;;20.67;18.73;;;22.70;63.20;;;;;;5014874;28;20256;-90
2023/07/14 11:24:43;;;;;;;18.98;17.45;;;22.70;62.80;;;;;;5015220;28;20251;-87
2023/07/14 11:27:32;;;;;;;19.08;17.67;;;23.20;63.30;;;;;;5015008;28;20176;-89
2023/07/14 11:30:03;;;;;;;19.67;18.08;;;23.60;62.70;;;;;;5017191;28;20548;-89
2023/07/14 11:33:02;;;;;;;19.17;17.60;;;23.80;58.50;;;;;;5014722;28;20256;-89
2023/07/14 11:35:59;;;;;;;19.10;17.35;;;23.50;61.20;;;;;;5015749;28;20174;-89
2023/07/14 11:38:46;;;;;;;19.58;18.00;;;23.90;61.00;;;;;;5015954;28;20673;-89
2023/07/14 11:41:14;;;;;;;19.85;18.15;;;23.70;61.00;;;;;;5014612;28;20176;-89
2023/07/14 11:43:41;;;;;;;19.10;17.73;;;24.00;61.70;;;;;;5017514;28;20201;-89
2023/07/14 11:46:09;;;;;;;18.88;17.33;;;24.10;59.80;;;;;;5014985;28;20212;-89
2023/07/14 11:48:59;;;;;;;18.42;16.83;;;24.20;61.50;;;;;;5015619;28;20177;-89
2023/07/14 11:52:08;;;;;;;17.90;16.67;;;24.20;59.50;;;;;;5014295;28;20166;-89
2023/07/14 11:54:59;;;;;;;17.52;16.25;;;24.00;59.20;;;;;;5007010;28;20280;-88
2023/07/14 11:57:24;;;;;;;19.10;17.60;;;23.80;58.60;;;;;;5016519;28;20217;-88
2023/07/14 12:00:12;;;;;;;19.00;17.42;;;23.80;59.80;;;;;;5015288;28;20546;-89
2023/07/14 12:02:48;;;;;;;19.77;18.38;;;23.50;61.50;;;;;;5015635;28;20185;-89
2023/07/14 12:05:13;;;;;;;19.80;18.23;;;23.50;63.40;;;;;;5016066;28;20157;-92
2023/07/14 12:08:01;;;;;;;19.20;17.63;;;23.20;61.40;;;;;;5015350;28;20192;-89
2023/07/14 12:10:40;;;;;;;20.35;18.65;;;23.20;62.40;;;;;;5014025;28;20205;-89
2023/07/14 12:13:27;;;;;;;19.85;18.13;;;23.20;63.20;;;;;;5014376;28;20585;-89
2023/07/14 12:15:55;;;;;;;19.40;17.58;;;22.70;63.50;;;;;;5014260;28;20180;-91
2023/07/14 12:18:31;;;;;;;19.90;17.98;;;22.60;63.60;;;;;;5014192;28;20172;-86
2023/07/14 12:21:15;;;;;;;19.60;18.10;;;22.40;65.70;;;;;;5014446;28;20153;-87
2023/07/14 12:23:43;;;;;;;19.30;17.80;;;22.20;66.10;;;;;;5014471;28;20216;-88
2023/07/14 12:26:17;;;;;;;19.38;17.98;;;22.20;65.30;;;;;;5013241;28;20181;-89
2023/07/14 12:28:44;;;;;;;19.65;18.35;;;22.10;65.90;;;;;;5014030;28;20658;-89
2023/07/14 12:31:15;;;;;;;19.35;17.90;;;22.60;66.50;;;;;;5013958;28;20213;-89
2023/07/14 12:33:41;;;;;;;19.05;17.48;;;22.80;65.00;;;;;;5015217;28;20208;-88
2023/07/14 12:36:15;;;;;;;19.65;18.02;;;23.10;65.40;;;;;;5013637;28;20177;-89
2023/07/14 12:38:45;;;;;;;18.83;17.30;;;23.00;63.50;;;;;;5015145;28;20150;-89
2023/07/14 12:41:12;;;;;;;19.80;17.98;;;23.00;64.30;;;;;;5013661;28;20162;-88
2023/07/14 12:43:44;;;;;;;18.30;16.90;;;23.20;64.40;;;;;;5014772;28;20204;-88
2023/07/14 12:46:28;;;;;;;19.23;17.67;;;23.20;62.60;;;;;;5014940;28;20177;-90